Time;durP1;ratioP1;P1;durP2;ratioP2;P2;SDS_P1;SDS_P2;PMS_P1;PMS_P2;Temp;Humidity;BMP_temperature;BMP_pressure;BME280_temperature;BME280_humidity;BME280_pressure;Samples;Min_cycle;Max_cycle;Signal;HPM_P1;HPM_P2
2021/01/01 00:01:34;;;;;;;1999.90;999.90;;;;;;;;;;5037072;28;20034;-78
2021/01/01 00:04:00;;;;;;;1999.90;999.90;;;;;;;;;;5038483;28;20025;-79
2021/01/01 00:06:25;;;;;;;1999.90;999.90;;;;;;;;;;5035754;28;20041;-79
2021/01/01 00:08:50;;;;;;;1999.90;999.90;;;;;;;;;;5036036;28;20479;-79
2021/01/01 00:11:16;;;;;;;1999.90;999.90;;;;;;;;;;5033601;28;20030;-79
2021/01/01 00:13:42;;;;;;;1999.90;999.90;;;;;;;;;;5032522;28;20022;-82
2021/01/01 00:16:11;;;;;;;1999.90;999.90;;;;;;;;;;5038002;28;20457;-85
2021/01/01 00:18:36;;;;;;;1999.90;999.90;;;;;;;;;;5036241;28;20087;-79
2021/01/01 00:21:02;;;;;;;1999.90;999.90;;;;;;;;;;5036508;28;20065;-79
2021/01/01 00:23:27;;;;;;;1999.90;999.90;;;;;;;;;;5038193;28;20039;-79
2021/01/01 00:25:52;;;;;;;1999.90;999.90;;;;;;;;;;5038013;28;20029;-79
2021/01/01 00:28:18;;;;;;;1999.90;999.90;;;;;;;;;;5034474;28;20021;-78
2021/01/01 00:30:43;;;;;;;1999.90;999.90;;;;;;;;;;5036459;28;20076;-78
2021/01/01 00:33:09;;;;;;;1999.90;999.90;;;;;;;;;;5038960;28;20059;-86
2021/01/01 00:35:34;;;;;;;1999.90;999.90;;;;;;;;;;5033182;28;20108;-79
2021/01/01 00:38:00;;;;;;;1999.90;999.90;;;;;;;;;;5036729;28;20389;-85
2021/01/01 00:40:25;;;;;;;1999.90;999.90;;;;;;;;;;5034781;28;20904;-84
2021/01/01 00:42:50;;;;;;;1999.90;999.90;;;;;;;;;;5033782;28;20041;-80
2021/01/01 00:45:16;;;;;;;1999.90;999.90;;;;;;;;;;5033300;28;20533;-81
2021/01/01 00:47:45;;;;;;;1999.90;999.90;;;;;;;;;;5037463;28;20083;-79
2021/01/01 00:50:11;;;;;;;1999.90;999.90;;;;;;;;;;5037577;28;20029;-80
2021/01/01 00:52:36;;;;;;;1999.90;999.90;;;;;;;;;;5032994;28;20049;-80
2021/01/01 00:55:02;;;;;;;1999.90;999.90;;;;;;;;;;5043431;28;20033;-79
2021/01/01 00:57:27;;;;;;;1999.90;999.90;;;;;;;;;;5043941;28;20089;-80
2021/01/01 00:59:53;;;;;;;1999.90;999.90;;;;;;;;;;5034592;28;20032;-80
2021/01/01 01:02:18;;;;;;;1999.90;999.90;;;;;;;;;;5038916;28;20029;-80
2021/01/01 01:04:44;;;;;;;1999.90;999.90;;;;;;;;;;5040142;28;20037;-81
2021/01/01 01:07:09;;;;;;;1999.90;999.90;;;;;;;;;;5040021;28;20099;-85
2021/01/01 01:09:34;;;;;;;1999.90;999.90;;;;;;;;;;5039907;28;20021;-82
2021/01/01 01:12:00;;;;;;;1999.90;999.90;;;;;;;;;;5038532;28;20085;-82
2021/01/01 01:14:25;;;;;;;1999.90;999.90;;;;;;;;;;5041968;28;20027;-82
2021/01/01 01:16:51;;;;;;;1999.90;999.90;;;;;;;;;;5039555;28;20509;-82
2021/01/01 01:19:16;;;;;;;1999.90;999.90;;;;;;;;;;5038389;28;20025;-82
2021/01/01 01:21:42;;;;;;;1999.90;999.90;;;;;;;;;;5044335;28;20037;-82
2021/01/01 01:24:07;;;;;;;1999.90;999.90;;;;;;;;;;5039484;28;20100;-81
2021/01/01 01:26:33;;;;;;;1999.90;999.90;;;;;;;;;;5039607;28;20036;-82
2021/01/01 01:28:58;;;;;;;1999.90;999.90;;;;;;;;;;5042333;28;20021;-82
2021/01/01 01:31:23;;;;;;;1999.90;999.90;;;;;;;;;;5043254;28;20049;-81
2021/01/01 01:33:49;;;;;;;1999.90;999.90;;;;;;;;;;5037008;28;20045;-82
2021/01/01 01:36:14;;;;;;;1999.90;999.90;;;;;;;;;;5042372;28;20033;-82
2021/01/01 01:38:40;;;;;;;1999.90;999.90;;;;;;;;;;5041075;28;20056;-81
2021/01/01 01:41:05;;;;;;;1999.90;999.90;;;;;;;;;;5039308;28;20124;-81
2021/01/01 01:43:31;;;;;;;1999.90;999.90;;;;;;;;;;5041500;28;20512;-82
2021/01/01 01:45:56;;;;;;;1999.90;999.90;;;;;;;;;;5035923;28;20034;-81
2021/01/01 01:48:23;;;;;;;1999.90;999.90;;;;;;;;;;5038142;28;20603;-81
2021/01/01 01:50:49;;;;;;;1999.90;999.90;;;;;;;;;;5035038;28;20025;-81
2021/01/01 01:53:14;;;;;;;1999.90;999.90;;;;;;;;;;5034464;28;20044;-80
2021/01/01 01:55:40;;;;;;;1999.90;999.90;;;;;;;;;;5038505;28;20028;-81
2021/01/01 01:58:06;;;;;;;1999.90;999.90;;;;;;;;;;5039870;28;20523;-81
2021/01/01 02:03:17;;;;;;;1999.90;999.90;;;;;;;;;;5038950;28;20079;-82
2021/01/01 02:05:42;;;;;;;1999.90;999.90;;;;;;;;;;5037406;28;20034;-82
2021/01/01 02:08:08;;;;;;;1999.90;999.90;;;;;;;;;;5039079;28;20608;-82
2021/01/01 02:10:33;;;;;;;1999.90;999.90;;;;;;;;;;5040347;28;20029;-82
2021/01/01 02:12:59;;;;;;;1999.90;999.90;;;;;;;;;;5038329;28;20072;-82
2021/01/01 02:15:29;;;;;;;1999.90;999.90;;;;;;;;;;5040713;28;20477;-82
2021/01/01 02:17:54;;;;;;;1999.90;999.90;;;;;;;;;;5040174;28;20068;-82
2021/01/01 02:20:20;;;;;;;1999.90;999.90;;;;;;;;;;5039526;28;20049;-82
2021/01/01 02:22:45;;;;;;;1999.90;999.90;;;;;;;;;;5035690;28;20037;-83
2021/01/01 02:25:11;;;;;;;1999.90;999.90;;;;;;;;;;5040498;28;20091;-81
2021/01/01 02:27:36;;;;;;;1999.90;999.90;;;;;;;;;;5038807;28;20432;-80
2021/01/01 02:30:02;;;;;;;1999.90;999.90;;;;;;;;;;5038497;28;20020;-80
2021/01/01 02:32:28;;;;;;;1999.90;999.90;;;;;;;;;;5040967;28;20075;-81
2021/01/01 02:34:53;;;;;;;1999.90;999.90;;;;;;;;;;5041059;28;20088;-80
2021/01/01 02:37:18;;;;;;;1999.90;999.90;;;;;;;;;;5036135;28;20551;-81
2021/01/01 02:39:44;;;;;;;1999.90;999.90;;;;;;;;;;5038666;28;20013;-81
2021/01/01 02:42:09;;;;;;;1999.90;999.90;;;;;;;;;;5037775;28;20029;-83
2021/01/01 02:44:35;;;;;;;1999.90;999.90;;;;;;;;;;5040512;28;20433;-81
2021/01/01 02:47:01;;;;;;;1999.90;999.90;;;;;;;;;;5038162;28;20113;-81
2021/01/01 02:49:26;;;;;;;1999.90;999.90;;;;;;;;;;5041618;28;20406;-81
2021/01/01 02:51:52;;;;;;;1999.90;999.90;;;;;;;;;;5038271;28;20413;-82
2021/01/01 02:54:17;;;;;;;1999.90;999.90;;;;;;;;;;5040740;28;20017;-81
2021/01/01 02:56:42;;;;;;;1999.90;999.90;;;;;;;;;;5039631;28;20033;-81
2021/01/01 02:59:08;;;;;;;1999.90;999.90;;;;;;;;;;5038552;28;20018;-83
2021/01/01 03:01:33;;;;;;;1999.90;999.90;;;;;;;;;;5040877;28;20043;-81
2021/01/01 03:03:59;;;;;;;1999.90;999.90;;;;;;;;;;5038358;28;20026;-82
2021/01/01 03:06:24;;;;;;;1999.90;999.90;;;;;;;;;;5036800;28;20044;-81
2021/01/01 03:08:50;;;;;;;1999.90;999.90;;;;;;;;;;5038826;28;20021;-81
2021/01/01 03:11:15;;;;;;;1999.90;999.90;;;;;;;;;;5041028;28;20041;-82
2021/01/01 03:13:40;;;;;;;1999.90;999.90;;;;;;;;;;5040754;28;20036;-82
2021/01/01 03:16:06;;;;;;;1999.90;999.90;;;;;;;;;;5040740;28;20444;-82
2021/01/01 03:18:31;;;;;;;1999.90;999.90;;;;;;;;;;5040035;28;20029;-82
2021/01/01 03:20:57;;;;;;;1999.90;999.90;;;;;;;;;;5037586;28;20574;-83
2021/01/01 03:23:22;;;;;;;1999.90;999.90;;;;;;;;;;5042090;28;20064;-83
2021/01/01 03:25:48;;;;;;;1999.90;999.90;;;;;;;;;;5038596;28;20029;-83
2021/01/01 03:28:15;;;;;;;1999.90;999.90;;;;;;;;;;5035988;28;20366;-83
2021/01/01 03:30:41;;;;;;;1999.90;999.90;;;;;;;;;;5041530;28;20575;-83
2021/01/01 03:33:06;;;;;;;1999.90;999.90;;;;;;;;;;5037679;28;20120;-83
2021/01/01 03:35:32;;;;;;;1999.90;999.90;;;;;;;;;;5039343;28;20091;-82
2021/01/01 03:37:57;;;;;;;1999.90;999.90;;;;;;;;;;5036656;28;20029;-82
2021/01/01 03:40:23;;;;;;;1999.90;999.90;;;;;;;;;;5039657;28;20496;-82
2021/01/01 03:42:48;;;;;;;1999.90;999.90;;;;;;;;;;5041025;28;20017;-83
2021/01/01 03:45:14;;;;;;;1999.90;999.90;;;;;;;;;;5035822;28;20193;-83
2021/01/01 03:47:40;;;;;;;1999.90;999.90;;;;;;;;;;5035395;28;20029;-83
2021/01/01 03:50:06;;;;;;;1999.90;999.90;;;;;;;;;;5036026;28;20044;-83
2021/01/01 03:52:32;;;;;;;1999.90;999.90;;;;;;;;;;5033116;28;20084;-83
2021/01/01 03:54:57;;;;;;;1999.90;999.90;;;;;;;;;;5033430;28;20033;-83
2021/01/01 03:57:22;;;;;;;1999.90;999.90;;;;;;;;;;5038871;28;20021;-83
2021/01/01 03:59:48;;;;;;;1999.90;999.90;;;;;;;;;;5040606;28;20084;-83
2021/01/01 04:02:13;;;;;;;1999.90;999.90;;;;;;;;;;5040641;28;20600;-83
2021/01/01 04:04:39;;;;;;;1999.90;999.90;;;;;;;;;;5040090;28;20529;-83
2021/01/01 04:07:04;;;;;;;1999.90;999.90;;;;;;;;;;5035794;28;20017;-83
2021/01/01 04:09:30;;;;;;;1999.90;999.90;;;;;;;;;;5037183;28;20659;-83
2021/01/01 04:11:55;;;;;;;1999.90;999.90;;;;;;;;;;5036164;28;20060;-82
2021/01/01 04:14:20;;;;;;;1999.90;999.90;;;;;;;;;;5036064;28;20497;-83
2021/01/01 04:16:46;;;;;;;1999.90;999.90;;;;;;;;;;5036308;28;20071;-83
2021/01/01 04:19:12;;;;;;;1999.90;999.90;;;;;;;;;;5037572;28;20037;-83
2021/01/01 04:21:43;;;;;;;1999.90;999.90;;;;;;;;;;5040406;28;20114;-83
2021/01/01 04:24:09;;;;;;;1999.90;999.90;;;;;;;;;;5036089;28;20729;-83
2021/01/01 04:26:34;;;;;;;1999.90;999.90;;;;;;;;;;5039528;28;20029;-83
2021/01/01 04:28:59;;;;;;;1999.90;999.90;;;;;;;;;;5038968;28;20323;-83
2021/01/01 04:31:25;;;;;;;1999.90;999.90;;;;;;;;;;5037457;28;20445;-83
2021/01/01 04:33:50;;;;;;;1999.90;999.90;;;;;;;;;;5038048;28;20507;-83
2021/01/01 04:36:16;;;;;;;1999.90;999.90;;;;;;;;;;5039731;28;20018;-83
2021/01/01 04:38:41;;;;;;;1999.90;999.90;;;;;;;;;;5036927;28;20029;-83
2021/01/01 04:41:08;;;;;;;1999.90;999.90;;;;;;;;;;5035191;28;20018;-83
2021/01/01 04:43:34;;;;;;;1999.90;999.90;;;;;;;;;;5036681;28;20079;-83
2021/01/01 04:46:00;;;;;;;1999.90;999.90;;;;;;;;;;5038641;28;20057;-83
2021/01/01 04:48:25;;;;;;;1999.90;999.90;;;;;;;;;;5037237;28;20087;-82
2021/01/01 04:50:50;;;;;;;1999.90;999.90;;;;;;;;;;5035863;28;20029;-82
2021/01/01 04:53:19;;;;;;;1999.90;999.90;;;;;;;;;;5040378;28;20064;-83
2021/01/01 04:55:44;;;;;;;1999.90;999.90;;;;;;;;;;5038275;28;20108;-82
2021/01/01 04:58:10;;;;;;;1999.90;999.90;;;;;;;;;;5035837;28;21577;-82
2021/01/01 05:00:35;;;;;;;1999.90;999.90;;;;;;;;;;5037958;28;20500;-82
2021/01/01 05:03:01;;;;;;;1999.90;999.90;;;;;;;;;;5035051;28;20386;-82
2021/01/01 05:05:27;;;;;;;1999.90;999.90;;;;;;;;;;5035884;28;20062;-82
2021/01/01 05:07:53;;;;;;;1999.90;999.90;;;;;;;;;;5038030;28;20044;-81
2021/01/01 05:10:18;;;;;;;1999.90;999.90;;;;;;;;;;5036414;28;20025;-81
2021/01/01 05:12:44;;;;;;;1999.90;999.90;;;;;;;;;;5036356;28;20044;-81
2021/01/01 05:15:09;;;;;;;1999.90;999.90;;;;;;;;;;5038461;28;20020;-81
2021/01/01 05:17:35;;;;;;;1999.90;999.90;;;;;;;;;;5037128;28;20037;-81
2021/01/01 05:20:08;;;;;;;1999.90;999.90;;;;;;;;;;5035583;28;20416;-81
2021/01/01 05:22:33;;;;;;;1999.90;999.90;;;;;;;;;;5038094;28;20367;-81
2021/01/01 05:25:16;;;;;;;1999.90;999.90;;;;;;;;;;5031505;28;20028;-81
2021/01/01 05:27:46;;;;;;;1999.90;999.90;;;;;;;;;;5033050;28;20030;-81
2021/01/01 05:30:12;;;;;;;1999.90;999.90;;;;;;;;;;5036886;28;20108;-81
2021/01/01 05:32:39;;;;;;;1999.90;999.90;;;;;;;;;;5037586;28;20567;-81
2021/01/01 05:35:05;;;;;;;1999.90;999.90;;;;;;;;;;5038822;28;20108;-82
2021/01/01 05:37:31;;;;;;;1999.90;999.90;;;;;;;;;;5039790;28;20125;-81
2021/01/01 05:40:00;;;;;;;1999.90;999.90;;;;;;;;;;5035051;28;20474;-81
2021/01/01 05:42:26;;;;;;;1999.90;999.90;;;;;;;;;;5036613;28;20037;-81
2021/01/01 05:44:51;;;;;;;1999.90;999.90;;;;;;;;;;5038660;28;20559;-81
2021/01/01 05:47:17;;;;;;;1999.90;999.90;;;;;;;;;;5037635;28;20025;-81
2021/01/01 05:49:42;;;;;;;1999.90;999.90;;;;;;;;;;5037521;28;20032;-81
2021/01/01 05:52:18;;;;;;;1999.90;999.90;;;;;;;;;;5035631;28;20030;-81
2021/01/01 05:54:43;;;;;;;1999.90;999.90;;;;;;;;;;5040101;28;20040;-81
2021/01/01 05:57:09;;;;;;;1999.90;999.90;;;;;;;;;;5041743;28;20086;-82
2021/01/01 05:59:39;;;;;;;1999.90;999.90;;;;;;;;;;5040599;28;20044;-81
2021/01/01 06:02:06;;;;;;;1999.90;999.90;;;;;;;;;;5039627;28;20056;-82
2021/01/01 06:04:32;;;;;;;1999.90;999.90;;;;;;;;;;5039744;28;20033;-82
2021/01/01 06:06:59;;;;;;;1999.90;999.90;;;;;;;;;;5040870;28;20405;-82
2021/01/01 06:09:26;;;;;;;1999.90;999.90;;;;;;;;;;5042355;28;20029;-81
2021/01/01 06:12:02;;;;;;;1999.90;999.90;;;;;;;;;;5037176;28;20025;-81
2021/01/01 06:14:27;;;;;;;;;;;;;;;;;;5041095;28;20044;-81
2021/01/01 06:17:00;;;;;;;1999.90;999.90;;;;;;;;;;5038912;28;19905;-82
2021/01/01 06:19:33;;;;;;;1999.90;999.90;;;;;;;;;;5041060;28;20485;-82
2021/01/01 06:22:04;;;;;;;1999.90;999.90;;;;;;;;;;5041502;28;20521;-81
2021/01/01 06:24:41;;;;;;;1999.90;999.90;;;;;;;;;;5038875;28;20029;-82
2021/01/01 06:27:07;;;;;;;1999.90;999.90;;;;;;;;;;5038949;28;20040;-82
2021/01/01 06:29:32;;;;;;;1999.90;999.90;;;;;;;;;;5039095;28;20018;-82
2021/01/01 06:31:57;;;;;;;1999.90;999.90;;;;;;;;;;5037219;28;20092;-82
2021/01/01 06:34:23;;;;;;;1999.90;999.90;;;;;;;;;;5040091;28;20454;-82
2021/01/01 06:36:50;;;;;;;1999.90;999.90;;;;;;;;;;5037635;28;20037;-82
2021/01/01 06:39:45;;;;;;;1999.90;999.90;;;;;;;;;;5040064;28;20025;-81
2021/01/01 06:42:11;;;;;;;1999.90;999.90;;;;;;;;;;5043024;28;20045;-83
2021/01/01 06:44:40;;;;;;;1999.90;999.90;;;;;;;;;;5038099;28;20010;-83
2021/01/01 06:47:07;;;;;;;1999.90;999.90;;;;;;;;;;5038340;28;20191;-83
2021/01/01 06:49:36;;;;;;;1999.90;999.90;;;;;;;;;;5036523;28;20029;-83
2021/01/01 06:52:13;;;;;;;1999.90;999.90;;;;;;;;;;5040820;28;20080;-83
2021/01/01 06:54:54;;;;;;;1999.90;999.90;;;;;;;;;;5038186;28;20040;-83
2021/01/01 06:57:24;;;;;;;1999.90;999.90;;;;;;;;;;5037552;28;20053;-83
2021/01/01 06:59:50;;;;;;;1999.90;999.90;;;;;;;;;;5039194;28;20045;-83
2021/01/01 07:02:24;;;;;;;1999.90;999.90;;;;;;;;;;5038315;28;20434;-82
2021/01/01 07:04:50;;;;;;;1999.90;999.90;;;;;;;;;;5037055;28;20037;-82
2021/01/01 07:07:34;;;;;;;1999.90;999.90;;;;;;;;;;5038789;28;20025;-81
2021/01/01 07:09:59;;;;;;;1999.90;999.90;;;;;;;;;;5034704;28;20047;-81
2021/01/01 07:12:25;;;;;;;1999.90;999.90;;;;;;;;;;5039834;28;20425;-81
2021/01/01 07:14:50;;;;;;;1999.90;999.90;;;;;;;;;;5038165;28;20038;-82
2021/01/01 07:17:16;;;;;;;1999.90;999.90;;;;;;;;;;5038378;28;20059;-81
2021/01/01 07:19:41;;;;;;;1999.90;999.90;;;;;;;;;;5038733;28;20029;-82
2021/01/01 07:22:07;;;;;;;1999.90;999.90;;;;;;;;;;5041048;28;20068;-82
2021/01/01 07:24:32;;;;;;;1999.90;999.90;;;;;;;;;;5041933;28;20128;-81
2021/01/01 07:26:58;;;;;;;1999.90;999.90;;;;;;;;;;5037534;28;20109;-82
2021/01/01 07:29:24;;;;;;;1999.90;999.90;;;;;;;;;;5039606;28;20024;-82
2021/01/01 07:31:52;;;;;;;1999.90;999.90;;;;;;;;;;5037540;28;20132;-82
2021/01/01 07:34:18;;;;;;;1999.90;999.90;;;;;;;;;;5038722;28;20037;-83
2021/01/01 07:36:44;;;;;;;1999.90;999.90;;;;;;;;;;5036326;28;20013;-83
2021/01/01 07:39:10;;;;;;;1999.90;999.90;;;;;;;;;;5040646;28;20040;-83
2021/01/01 07:41:35;;;;;;;1999.90;999.90;;;;;;;;;;5036460;28;20017;-83
2021/01/01 07:44:01;;;;;;;1999.90;999.90;;;;;;;;;;5036589;28;20036;-82
2021/01/01 07:46:28;;;;;;;1999.90;999.90;;;;;;;;;;5037819;28;20049;-81
2021/01/01 07:48:54;;;;;;;1999.90;999.90;;;;;;;;;;5037912;28;20041;-82
2021/01/01 07:51:20;;;;;;;1999.90;999.90;;;;;;;;;;5037091;28;20569;-82
2021/01/01 07:53:45;;;;;;;1999.90;999.90;;;;;;;;;;5037955;28;20052;-82
2021/01/01 07:56:11;;;;;;;1999.90;999.90;;;;;;;;;;5037754;28;20025;-82
2021/01/01 07:58:37;;;;;;;1999.90;999.90;;;;;;;;;;5037870;28;20112;-82
2021/01/01 08:01:09;;;;;;;1999.90;999.90;;;;;;;;;;5036708;28;20021;-81
2021/01/01 08:03:37;;;;;;;1999.90;999.90;;;;;;;;;;5038521;28;20021;-82
2021/01/01 08:06:02;;;;;;;1999.90;999.90;;;;;;;;;;5039450;28;20578;-90
2021/01/01 08:08:28;;;;;;;1999.90;999.90;;;;;;;;;;5040555;28;20064;-86
2021/01/01 08:10:54;;;;;;;1999.90;999.90;;;;;;;;;;5033827;28;20041;-86
2021/01/01 08:13:20;;;;;;;1999.90;999.90;;;;;;;;;;5035635;28;20413;-86
2021/01/01 08:15:46;;;;;;;1999.90;999.90;;;;;;;;;;5038664;28;20408;-86
2021/01/01 08:18:14;;;;;;;1999.90;999.90;;;;;;;;;;5033922;28;20029;-86
2021/01/01 08:20:40;;;;;;;1999.90;999.90;;;;;;;;;;5034724;28;20033;-86
2021/01/01 08:23:09;;;;;;;1999.90;999.90;;;;;;;;;;5037794;28;20040;-87
2021/01/01 08:25:35;;;;;;;1999.90;999.90;;;;;;;;;;5034844;28;20100;-86
2021/01/01 08:28:02;;;;;;;1999.90;999.90;;;;;;;;;;5034251;28;20132;-86
2021/01/01 08:30:28;;;;;;;1999.90;999.90;;;;;;;;;;5039044;28;20043;-86
2021/01/01 08:32:53;;;;;;;1999.90;999.90;;;;;;;;;;5035164;28;20029;-85
2021/01/01 08:35:20;;;;;;;1999.90;999.90;;;;;;;;;;5035389;28;20041;-86
2021/01/01 08:37:46;;;;;;;1999.90;999.90;;;;;;;;;;5034821;28;20385;-87
2021/01/01 08:40:11;;;;;;;1999.90;999.90;;;;;;;;;;5034555;28;20021;-87
2021/01/01 08:42:38;;;;;;;1999.90;999.90;;;;;;;;;;5041163;28;20025;-86
2021/01/01 08:45:04;;;;;;;1999.90;999.90;;;;;;;;;;5037149;28;20025;-85
2021/01/01 08:47:39;;;;;;;1999.90;999.90;;;;;;;;;;5034879;28;20116;-87
2021/01/01 08:50:16;;;;;;;1999.90;999.90;;;;;;;;;;5038711;28;20041;-86
2021/01/01 08:52:42;;;;;;;1999.90;999.90;;;;;;;;;;5035362;28;20375;-88
2021/01/01 08:55:08;;;;;;;1999.90;999.90;;;;;;;;;;5038433;28;20020;-86
2021/01/01 08:57:33;;;;;;;1999.90;999.90;;;;;;;;;;5034892;28;20021;-86
2021/01/01 09:00:02;;;;;;;1999.90;999.90;;;;;;;;;;5036392;28;20048;-86
2021/01/01 09:02:28;;;;;;;1999.90;999.90;;;;;;;;;;5037695;28;20021;-86
2021/01/01 09:04:55;;;;;;;1999.90;999.90;;;;;;;;;;5036855;28;20044;-86
2021/01/01 09:07:21;;;;;;;1999.90;999.90;;;;;;;;;;5037781;28;20107;-86
2021/01/01 09:09:46;;;;;;;1999.90;999.90;;;;;;;;;;5038581;28;20013;-86
2021/01/01 09:12:16;;;;;;;1999.90;999.90;;;;;;;;;;5036720;28;20044;-85
2021/01/01 09:14:45;;;;;;;1999.90;999.90;;;;;;;;;;5036352;28;20044;-86
2021/01/01 09:17:10;;;;;;;1999.90;999.90;;;;;;;;;;5035871;28;20033;-85
2021/01/01 09:19:36;;;;;;;1999.90;999.90;;;;;;;;;;5037033;28;20025;-86
2021/01/01 09:22:10;;;;;;;1999.90;999.90;;;;;;;;;;5035995;28;20072;-85
2021/01/01 09:24:36;;;;;;;1999.90;999.90;;;;;;;;;;5038593;28;20087;-86
2021/01/01 09:27:02;;;;;;;1999.90;999.90;;;;;;;;;;5040722;28;20562;-85
2021/01/01 09:29:29;;;;;;;1999.90;999.90;;;;;;;;;;5038362;28;20538;-86
2021/01/01 09:31:54;;;;;;;1999.90;999.90;;;;;;;;;;5038463;28;21321;-86
2021/01/01 09:34:20;;;;;;;1999.90;999.90;;;;;;;;;;5042458;28;20025;-86
2021/01/01 09:36:46;;;;;;;1999.90;999.90;;;;;;;;;;5039556;28;20017;-87
2021/01/01 09:39:12;;;;;;;1999.90;999.90;;;;;;;;;;5038953;28;20040;-87
2021/01/01 09:41:38;;;;;;;1999.90;999.90;;;;;;;;;;5040997;28;20081;-85
2021/01/01 09:44:03;;;;;;;1999.90;999.90;;;;;;;;;;5039694;28;20116;-86
2021/01/01 09:46:29;;;;;;;1999.90;999.90;;;;;;;;;;5040738;28;20125;-87
2021/01/01 09:48:54;;;;;;;1999.90;999.90;;;;;;;;;;5039663;28;20025;-87
2021/01/01 09:51:20;;;;;;;1999.90;999.90;;;;;;;;;;5041042;28;20017;-86
2021/01/01 09:53:45;;;;;;;1999.90;999.90;;;;;;;;;;5040352;28;20481;-89
2021/01/01 09:56:10;;;;;;;1999.90;999.90;;;;;;;;;;5045332;28;20016;-88
2021/01/01 09:58:36;;;;;;;1999.90;999.90;;;;;;;;;;5040239;28;20041;-89
2021/01/01 10:01:01;;;;;;;1999.90;999.90;;;;;;;;;;5045162;28;20017;-87
2021/01/01 10:03:27;;;;;;;1999.90;999.90;;;;;;;;;;5042497;28;20048;-89
2021/01/01 10:05:52;;;;;;;1999.90;999.90;;;;;;;;;;5042670;28;20021;-87
2021/01/01 10:08:18;;;;;;;1999.90;999.90;;;;;;;;;;5039138;28;20112;-86
2021/01/01 10:10:43;;;;;;;1999.90;999.90;;;;;;;;;;5042949;28;20032;-88
2021/01/01 10:13:09;;;;;;;1999.90;999.90;;;;;;;;;;5039727;28;20048;-87
2021/01/01 10:15:34;;;;;;;1999.90;999.90;;;;;;;;;;5037966;28;20134;-87
2021/01/01 10:18:00;;;;;;;1999.90;999.90;;;;;;;;;;5035539;28;20092;-87
2021/01/01 10:20:25;;;;;;;1999.90;999.90;;;;;;;;;;5037905;28;20017;-85
2021/01/01 10:22:51;;;;;;;1999.90;999.90;;;;;;;;;;5037988;28;20412;-86
2021/01/01 10:25:16;;;;;;;1999.90;999.90;;;;;;;;;;5043263;28;20108;-82
2021/01/01 10:27:41;;;;;;;1999.90;999.90;;;;;;;;;;5035357;28;20448;-81
2021/01/01 10:30:07;;;;;;;1999.90;999.90;;;;;;;;;;5038492;28;20680;-78
2021/01/01 10:32:33;;;;;;;1999.90;999.90;;;;;;;;;;5038281;28;20409;-78
2021/01/01 10:34:58;;;;;;;1999.90;999.90;;;;;;;;;;5041387;28;20045;-79
2021/01/01 10:37:24;;;;;;;1999.90;999.90;;;;;;;;;;5037473;28;20033;-79
2021/01/01 10:39:49;;;;;;;1999.90;999.90;;;;;;;;;;5040726;28;20021;-79
2021/01/01 10:42:15;;;;;;;1999.90;999.90;;;;;;;;;;5042824;28;20083;-78
2021/01/01 10:44:40;;;;;;;1999.90;999.90;;;;;;;;;;5041837;28;20074;-77
2021/01/01 10:47:05;;;;;;;1999.90;999.90;;;;;;;;;;5046806;28;20032;-77
2021/01/01 10:49:33;;;;;;;1999.90;999.90;;;;;;;;;;5040287;28;20032;-78
2021/01/01 10:51:58;;;;;;;1999.90;999.90;;;;;;;;;;5042560;28;20040;-77
2021/01/01 10:54:24;;;;;;;1999.90;999.90;;;;;;;;;;5041853;28;20089;-78
2021/01/01 10:56:49;;;;;;;1999.90;999.90;;;;;;;;;;5040009;28;20490;-78
2021/01/01 10:59:15;;;;;;;1999.90;999.90;;;;;;;;;;5043871;28;20029;-78
2021/01/01 11:01:40;;;;;;;1999.90;999.90;;;;;;;;;;5041047;28;20033;-78
2021/01/01 11:04:06;;;;;;;1999.90;999.90;;;;;;;;;;5039127;28;20458;-78
2021/01/01 11:06:35;;;;;;;1999.90;999.90;;;;;;;;;;5038943;28;20040;-78
2021/01/01 11:09:01;;;;;;;1999.90;999.90;;;;;;;;;;5037231;28;20398;-78
2021/01/01 11:11:26;;;;;;;1999.90;999.90;;;;;;;;;;5039829;28;20055;-78
2021/01/01 11:14:01;;;;;;;1999.90;999.90;;;;;;;;;;5037487;28;20037;-79
2021/01/01 12:25:27;;;;;;;1999.90;999.90;;;;;;;;;;5041109;28;20029;-84
2021/01/01 12:27:55;;;;;;;1999.90;999.90;;;;;;;;;;5036785;28;20036;-83
2021/01/01 12:30:23;;;;;;;1999.90;999.90;;;;;;;;;;5039537;28;20037;-82
2021/01/01 12:32:50;;;;;;;1999.90;999.90;;;;;;;;;;5039294;28;20094;-82
2021/01/01 12:35:15;;;;;;;1999.90;999.90;;;;;;;;;;5033802;28;20459;-83
2021/01/01 12:37:41;;;;;;;1999.90;999.90;;;;;;;;;;5035699;28;20021;-82
2021/01/01 12:40:08;;;;;;;1999.90;999.90;;;;;;;;;;5038500;28;20512;-82
2021/01/01 12:42:33;;;;;;;1999.90;999.90;;;;;;;;;;5039135;28;20025;-83
2021/01/01 12:44:58;;;;;;;1999.90;999.90;;;;;;;;;;5036305;28;20029;-81
2021/01/01 12:47:24;;;;;;;1999.90;999.90;;;;;;;;;;5039782;28;20511;-82
2021/01/01 12:49:50;;;;;;;1999.90;999.90;;;;;;;;;;5036200;28;20053;-82
2021/01/01 12:52:15;;;;;;;1999.90;999.90;;;;;;;;;;5035123;28;20051;-83
2021/01/01 12:54:40;;;;;;;1999.90;999.90;;;;;;;;;;5035435;28;20065;-84
2021/01/01 12:57:06;;;;;;;1999.90;999.90;;;;;;;;;;5033410;28;20116;-82
2021/01/01 12:59:31;;;;;;;1999.90;999.90;;;;;;;;;;5040881;28;20040;-83
2021/01/01 13:01:57;;;;;;;1999.90;999.90;;;;;;;;;;5039900;28;20030;-83
2021/01/01 13:04:22;;;;;;;1999.90;999.90;;;;;;;;;;5042380;28;20464;-82
2021/01/01 13:06:48;;;;;;;1999.90;999.90;;;;;;;;;;5046008;28;20405;-82
2021/01/01 13:09:13;;;;;;;1999.90;999.90;;;;;;;;;;5040228;28;20051;-83
2021/01/01 13:11:42;;;;;;;1999.90;999.90;;;;;;;;;;5043296;28;20164;-84
2021/01/01 13:14:08;;;;;;;1999.90;999.90;;;;;;;;;;5044409;28;20042;-83
2021/01/01 13:16:33;;;;;;;1999.90;999.90;;;;;;;;;;5041224;28;20031;-83
2021/01/01 13:18:59;;;;;;;1999.90;999.90;;;;;;;;;;5039454;28;21051;-83
2021/01/01 13:21:24;;;;;;;1999.90;999.90;;;;;;;;;;5041680;28;20029;-82
2021/01/01 13:23:50;;;;;;;1999.90;999.90;;;;;;;;;;5040719;28;20108;-81
2021/01/01 13:26:19;;;;;;;1999.90;999.90;;;;;;;;;;5043037;28;20074;-82
2021/01/01 13:28:44;;;;;;;1999.90;999.90;;;;;;;;;;5045446;28;20021;-80
2021/01/01 13:31:10;;;;;;;1999.90;999.90;;;;;;;;;;5046262;28;20037;-79
2021/01/01 13:33:35;;;;;;;1999.90;999.90;;;;;;;;;;5044441;28;20055;-79
2021/01/01 13:36:01;;;;;;;1999.90;999.90;;;;;;;;;;5037473;28;20025;-79
2021/01/01 13:38:26;;;;;;;1999.90;999.90;;;;;;;;;;5044408;28;20028;-79
2021/01/01 13:40:51;;;;;;;1999.90;999.90;;;;;;;;;;5041140;28;20018;-79
2021/01/01 13:43:17;;;;;;;1999.90;999.90;;;;;;;;;;5041122;28;20139;-86
2021/01/01 13:45:43;;;;;;;1999.90;999.90;;;;;;;;;;5042176;28;20092;-86
2021/01/01 13:48:09;;;;;;;1999.90;999.90;;;;;;;;;;5040391;28;20224;-86
2021/01/01 13:50:34;;;;;;;1999.90;999.90;;;;;;;;;;5043799;28;20020;-87
2021/01/01 13:53:00;;;;;;;1999.90;999.90;;;;;;;;;;5029963;28;20034;-85
2021/01/01 13:55:25;;;;;;;1999.90;999.90;;;;;;;;;;5039943;28;20049;-87
2021/01/01 13:57:52;;;;;;;1999.90;999.90;;;;;;;;;;5038869;28;20032;-88
2021/01/01 14:00:17;;;;;;;1999.90;999.90;;;;;;;;;;5041242;28;20033;-84
2021/01/01 14:02:43;;;;;;;1999.90;999.90;;;;;;;;;;5022887;28;20091;-88
2021/01/01 14:05:08;;;;;;;1999.90;999.90;;;;;;;;;;5038548;28;20036;-85
2021/01/01 14:07:34;;;;;;;1999.90;999.90;;;;;;;;;;5035937;28;20471;-84
2021/01/01 14:09:59;;;;;;;1999.90;999.90;;;;;;;;;;5037862;28;20013;-85
2021/01/01 14:12:25;;;;;;;1999.90;999.90;;;;;;;;;;5038179;28;20057;-85
2021/01/01 14:14:50;;;;;;;1999.90;999.90;;;;;;;;;;5037849;28;20029;-87
2021/01/01 14:17:16;;;;;;;1999.90;999.90;;;;;;;;;;5037267;28;20029;-85
2021/01/01 14:19:41;;;;;;;1999.90;999.90;;;;;;;;;;5041113;28;20033;-85
2021/01/01 14:22:07;;;;;;;1999.90;999.90;;;;;;;;;;5041219;28;20033;-89
2021/01/01 14:24:32;;;;;;;1999.90;999.90;;;;;;;;;;5045781;28;20524;-83
2021/01/01 14:26:57;;;;;;;1999.90;999.90;;;;;;;;;;5043002;28;20428;-83
2021/01/01 14:29:23;;;;;;;1999.90;999.90;;;;;;;;;;5039426;28;20096;-84
2021/01/01 14:31:49;;;;;;;1999.90;999.90;;;;;;;;;;5035950;28;20181;-83
2021/01/01 14:34:15;;;;;;;1999.90;999.90;;;;;;;;;;5048488;28;20385;-84
2021/01/01 14:36:41;;;;;;;1999.90;999.90;;;;;;;;;;5044539;28;20024;-84
2021/01/01 14:39:07;;;;;;;1999.90;999.90;;;;;;;;;;5041111;28;20108;-84
2021/01/01 14:41:33;;;;;;;1999.90;999.90;;;;;;;;;;5037205;28;20056;-82
2021/01/01 14:43:58;;;;;;;1999.90;999.90;;;;;;;;;;5040035;28;20381;-82
2021/01/01 14:46:24;;;;;;;1999.90;999.90;;;;;;;;;;5044243;28;20068;-82
2021/01/01 14:48:50;;;;;;;1999.90;999.90;;;;;;;;;;5048380;28;20043;-82